sensor_id;sensor_type;location;lat;lon;timestamp;pressure;altitude;pressure_sealevel;temperature;humidity
56689;BME280;42565;53.342;-1.534;2023-05-10T00:01:57;98380.94;;;12.15;57.18
56689;BME280;42565;53.342;-1.534;2023-05-10T00:04:24;98382.28;;;11.71;57.89
56689;BME280;42565;53.342;-1.534;2023-05-10T00:06:51;98382.51;;;12.02;57.90
56689;BME280;42565;53.342;-1.534;2023-05-10T00:09:18;98383.65;;;11.83;57.88
56689;BME280;42565;53.342;-1.534;2023-05-10T00:11:45;98386.02;;;11.89;59.15
56689;BME280;42565;53.342;-1.534;2023-05-10T00:14:12;98388.28;;;11.83;58.73
56689;BME280;42565;53.342;-1.534;2023-05-10T00:16:39;98391.83;;;11.41;59.11
56689;BME280;42565;53.342;-1.534;2023-05-10T00:19:06;98396.37;;;11.45;59.26
56689;BME280;42565;53.342;-1.534;2023-05-10T00:21:34;98394.90;;;12.21;57.95
56689;BME280;42565;53.342;-1.534;2023-05-10T00:24:00;98396.80;;;11.93;58.39
56689;BME280;42565;53.342;-1.534;2023-05-10T00:26:28;98396.03;;;11.70;58.20
56689;BME280;42565;53.342;-1.534;2023-05-10T00:28:55;98395.16;;;12.04;58.37
56689;BME280;42565;53.342;-1.534;2023-05-10T00:31:22;98389.00;;;11.11;59.30
56689;BME280;42565;53.342;-1.534;2023-05-10T00:33:50;98387.65;;;12.07;58.25
56689;BME280;42565;53.342;-1.534;2023-05-10T00:36:16;98393.19;;;12.19;57.78
56689;BME280;42565;53.342;-1.534;2023-05-10T00:38:43;98394.56;;;12.01;58.22
56689;BME280;42565;53.342;-1.534;2023-05-10T00:41:11;98389.19;;;12.25;58.55
56689;BME280;42565;53.342;-1.534;2023-05-10T00:43:37;98392.28;;;12.20;59.17
56689;BME280;42565;53.342;-1.534;2023-05-10T00:46:04;98388.79;;;12.10;58.80
56689;BME280;42565;53.342;-1.534;2023-05-10T00:48:32;98390.35;;;11.66;60.21
56689;BME280;42565;53.342;-1.534;2023-05-10T00:50:59;98387.18;;;11.73;60.31
56689;BME280;42565;53.342;-1.534;2023-05-10T00:53:27;98391.88;;;11.75;60.67
56689;BME280;42565;53.342;-1.534;2023-05-10T00:55:54;98387.49;;;12.18;60.86
56689;BME280;42565;53.342;-1.534;2023-05-10T00:58:22;98389.78;;;11.73;60.77
56689;BME280;42565;53.342;-1.534;2023-05-10T01:00:50;98385.97;;;11.98;60.91
56689;BME280;42565;53.342;-1.534;2023-05-10T01:03:18;98389.93;;;12.22;59.78
56689;BME280;42565;53.342;-1.534;2023-05-10T01:05:44;98386.99;;;12.71;59.00
56689;BME280;42565;53.342;-1.534;2023-05-10T01:08:11;98384.38;;;12.01;60.50
56689;BME280;42565;53.342;-1.534;2023-05-10T01:10:39;98389.07;;;11.78;60.92
56689;BME280;42565;53.342;-1.534;2023-05-10T01:13:06;98384.46;;;11.66;62.48
56689;BME280;42565;53.342;-1.534;2023-05-10T01:15:34;98385.17;;;11.54;62.14
56689;BME280;42565;53.342;-1.534;2023-05-10T01:18:03;98384.71;;;11.94;61.02
56689;BME280;42565;53.342;-1.534;2023-05-10T01:20:35;98388.83;;;12.16;60.25
56689;BME280;42565;53.342;-1.534;2023-05-10T01:23:23;98388.19;;;12.12;60.84
56689;BME280;42565;53.342;-1.534;2023-05-10T01:26:12;98390.58;;;12.42;59.56
56689;BME280;42565;53.342;-1.534;2023-05-10T01:29:00;98392.85;;;11.76;60.72
56689;BME280;42565;53.342;-1.534;2023-05-10T01:31:49;98395.64;;;12.06;60.17
56689;BME280;42565;53.342;-1.534;2023-05-10T01:34:23;98396.98;;;12.35;59.24
56689;BME280;42565;53.342;-1.534;2023-05-10T01:36:58;98394.76;;;12.66;58.59
56689;BME280;42565;53.342;-1.534;2023-05-10T01:39:30;98393.65;;;12.23;58.11
56689;BME280;42565;53.342;-1.534;2023-05-10T01:42:05;98395.85;;;12.70;58.60
56689;BME280;42565;53.342;-1.534;2023-05-10T01:44:39;98393.46;;;12.10;60.08
56689;BME280;42565;53.342;-1.534;2023-05-10T01:47:10;98390.16;;;12.38;60.05
56689;BME280;42565;53.342;-1.534;2023-05-10T01:49:42;98388.08;;;11.68;62.17
56689;BME280;42565;53.342;-1.534;2023-05-10T01:52:12;98389.10;;;12.06;63.05
56689;BME280;42565;53.342;-1.534;2023-05-10T01:54:48;98390.68;;;11.53;63.13
56689;BME280;42565;53.342;-1.534;2023-05-10T01:57:17;98393.76;;;12.11;61.78
56689;BME280;42565;53.342;-1.534;2023-05-10T01:59:50;98393.20;;;12.06;62.12
56689;BME280;42565;53.342;-1.534;2023-05-10T02:02:19;98395.23;;;12.49;61.37
56689;BME280;42565;53.342;-1.534;2023-05-10T02:04:47;98397.37;;;12.03;62.66
56689;BME280;42565;53.342;-1.534;2023-05-10T02:07:16;98397.79;;;12.71;62.15
56689;BME280;42565;53.342;-1.534;2023-05-10T02:09:45;98402.01;;;12.38;61.86
56689;BME280;42565;53.342;-1.534;2023-05-10T02:12:13;98401.20;;;11.86;63.17
56689;BME280;42565;53.342;-1.534;2023-05-10T02:14:43;98403.24;;;12.06;62.40
56689;BME280;42565;53.342;-1.534;2023-05-10T02:17:11;98404.86;;;12.54;61.37
56689;BME280;42565;53.342;-1.534;2023-05-10T02:19:41;98401.94;;;12.57;61.35
56689;BME280;42565;53.342;-1.534;2023-05-10T02:22:09;98401.96;;;12.45;61.29
56689;BME280;42565;53.342;-1.534;2023-05-10T02:24:37;98407.44;;;12.18;62.68
56689;BME280;42565;53.342;-1.534;2023-05-10T02:27:06;98402.57;;;12.07;63.77
56689;BME280;42565;53.342;-1.534;2023-05-10T02:29:35;98406.14;;;12.60;63.62
56689;BME280;42565;53.342;-1.534;2023-05-10T02:32:04;98403.86;;;12.07;64.61
56689;BME280;42565;53.342;-1.534;2023-05-10T02:34:32;98400.89;;;11.83;64.81
56689;BME280;42565;53.342;-1.534;2023-05-10T02:37:00;98401.62;;;11.95;64.65
56689;BME280;42565;53.342;-1.534;2023-05-10T02:39:29;98396.46;;;11.95;64.64
56689;BME280;42565;53.342;-1.534;2023-05-10T02:41:59;98397.87;;;11.76;65.42
56689;BME280;42565;53.342;-1.534;2023-05-10T02:44:28;98396.87;;;11.92;65.22
56689;BME280;42565;53.342;-1.534;2023-05-10T02:46:56;98395.98;;;12.13;64.70
56689;BME280;42565;53.342;-1.534;2023-05-10T02:49:23;98397.07;;;12.36;65.54
56689;BME280;42565;53.342;-1.534;2023-05-10T02:51:56;98396.41;;;12.26;65.51
56689;BME280;42565;53.342;-1.534;2023-05-10T02:54:29;98392.29;;;11.73;65.07
56689;BME280;42565;53.342;-1.534;2023-05-10T02:56:58;98399.92;;;11.67;65.51
56689;BME280;42565;53.342;-1.534;2023-05-10T02:59:26;98400.56;;;11.76;65.46
56689;BME280;42565;53.342;-1.534;2023-05-10T03:01:53;98406.45;;;11.96;64.58
56689;BME280;42565;53.342;-1.534;2023-05-10T03:04:21;98405.96;;;11.84;64.52
56689;BME280;42565;53.342;-1.534;2023-05-10T03:06:48;98408.32;;;12.30;63.32
56689;BME280;42565;53.342;-1.534;2023-05-10T03:09:16;98412.75;;;12.55;62.48
56689;BME280;42565;53.342;-1.534;2023-05-10T03:11:51;98408.93;;;12.62;62.10
56689;BME280;42565;53.342;-1.534;2023-05-10T03:14:31;98409.68;;;12.85;60.78
56689;BME280;42565;53.342;-1.534;2023-05-10T03:17:06;98409.33;;;13.08;60.60
56689;BME280;42565;53.342;-1.534;2023-05-10T03:19:42;98402.90;;;12.30;62.94
56689;BME280;42565;53.342;-1.534;2023-05-10T03:22:31;98401.69;;;11.86;63.50
56689;BME280;42565;53.342;-1.534;2023-05-10T03:25:00;98401.41;;;12.02;64.64
56689;BME280;42565;53.342;-1.534;2023-05-10T03:27:29;98398.14;;;10.70;67.20
56689;BME280;42565;53.342;-1.534;2023-05-10T03:29:57;98395.12;;;11.75;66.05
56689;BME280;42565;53.342;-1.534;2023-05-10T03:32:25;98398.09;;;11.34;65.04
56689;BME280;42565;53.342;-1.534;2023-05-10T03:34:52;98401.89;;;11.83;65.24
56689;BME280;42565;53.342;-1.534;2023-05-10T03:37:20;98398.66;;;11.48;65.48
56689;BME280;42565;53.342;-1.534;2023-05-10T03:39:47;98406.24;;;12.04;63.94
56689;BME280;42565;53.342;-1.534;2023-05-10T03:42:14;98402.89;;;12.25;63.22
56689;BME280;42565;53.342;-1.534;2023-05-10T03:44:40;98400.73;;;11.86;64.11
56689;BME280;42565;53.342;-1.534;2023-05-10T03:47:07;98404.54;;;12.05;64.03
56689;BME280;42565;53.342;-1.534;2023-05-10T03:49:34;98406.79;;;12.05;64.45
56689;BME280;42565;53.342;-1.534;2023-05-10T03:52:01;98405.62;;;11.82;65.33
56689;BME280;42565;53.342;-1.534;2023-05-10T03:54:27;98410.14;;;12.39;64.79
56689;BME280;42565;53.342;-1.534;2023-05-10T03:56:54;98398.46;;;11.80;65.60
56689;BME280;42565;53.342;-1.534;2023-05-10T03:59:21;98403.75;;;11.77;64.91
56689;BME280;42565;53.342;-1.534;2023-05-10T04:01:48;98402.99;;;12.25;63.77
56689;BME280;42565;53.342;-1.534;2023-05-10T04:04:15;98399.46;;;12.20;64.32
56689;BME280;42565;53.342;-1.534;2023-05-10T04:06:43;98401.24;;;11.93;64.94
56689;BME280;42565;53.342;-1.534;2023-05-10T04:09:10;98400.87;;;11.75;65.35
56689;BME280;42565;53.342;-1.534;2023-05-10T04:11:38;98398.75;;;11.55;67.47
56689;BME280;42565;53.342;-1.534;2023-05-10T04:14:04;98405.96;;;11.05;69.14
56689;BME280;42565;53.342;-1.534;2023-05-10T04:16:32;98409.59;;;11.15;69.34
56689;BME280;42565;53.342;-1.534;2023-05-10T04:18:59;98405.41;;;10.88;69.58
56689;BME280;42565;53.342;-1.534;2023-05-10T04:21:26;98407.26;;;10.28;69.87
56689;BME280;42565;53.342;-1.534;2023-05-10T04:23:53;98408.74;;;11.24;68.54
56689;BME280;42565;53.342;-1.534;2023-05-10T04:26:20;98414.81;;;11.38;67.93
56689;BME280;42565;53.342;-1.534;2023-05-10T04:28:47;98414.78;;;11.57;67.21
56689;BME280;42565;53.342;-1.534;2023-05-10T04:31:14;98416.27;;;11.74;66.55
56689;BME280;42565;53.342;-1.534;2023-05-10T04:33:41;98416.20;;;11.60;66.56
56689;BME280;42565;53.342;-1.534;2023-05-10T04:36:08;98421.47;;;10.95;68.55
56689;BME280;42565;53.342;-1.534;2023-05-10T04:38:35;98420.35;;;11.06;68.87
56689;BME280;42565;53.342;-1.534;2023-05-10T04:41:04;98423.46;;;11.52;67.44
56689;BME280;42565;53.342;-1.534;2023-05-10T04:43:32;98422.83;;;11.31;67.58
56689;BME280;42565;53.342;-1.534;2023-05-10T04:45:58;98424.25;;;11.10;68.33
56689;BME280;42565;53.342;-1.534;2023-05-10T04:48:26;98425.40;;;10.66;67.95
56689;BME280;42565;53.342;-1.534;2023-05-10T04:50:53;98428.34;;;11.46;67.71
56689;BME280;42565;53.342;-1.534;2023-05-10T04:53:20;98429.85;;;11.44;67.20
56689;BME280;42565;53.342;-1.534;2023-05-10T04:55:47;98430.93;;;11.18;67.99
56689;BME280;42565;53.342;-1.534;2023-05-10T04:58:15;98437.93;;;11.44;67.24
56689;BME280;42565;53.342;-1.534;2023-05-10T05:00:41;98438.89;;;11.48;67.13
56689;BME280;42565;53.342;-1.534;2023-05-10T05:03:08;98444.76;;;11.21;67.96
56689;BME280;42565;53.342;-1.534;2023-05-10T05:05:35;98445.32;;;10.98;68.11
56689;BME280;42565;53.342;-1.534;2023-05-10T05:08:02;98449.83;;;11.56;67.51
56689;BME280;42565;53.342;-1.534;2023-05-10T05:10:29;98452.59;;;11.91;66.65
56689;BME280;42565;53.342;-1.534;2023-05-10T05:12:56;98459.03;;;11.87;66.81
56689;BME280;42565;53.342;-1.534;2023-05-10T05:15:23;98457.94;;;11.77;66.60
56689;BME280;42565;53.342;-1.534;2023-05-10T05:17:50;98465.26;;;11.66;67.06
56689;BME280;42565;53.342;-1.534;2023-05-10T05:20:17;98463.64;;;12.43;65.19
56689;BME280;42565;53.342;-1.534;2023-05-10T05:22:45;98467.52;;;12.39;65.06
56689;BME280;42565;53.342;-1.534;2023-05-10T05:25:12;98475.73;;;11.89;66.28
56689;BME280;42565;53.342;-1.534;2023-05-10T05:27:38;98475.63;;;12.01;66.58
56689;BME280;42565;53.342;-1.534;2023-05-10T05:30:07;98478.38;;;11.75;66.78
56689;BME280;42565;53.342;-1.534;2023-05-10T05:32:34;98480.80;;;11.94;66.22
56689;BME280;42565;53.342;-1.534;2023-05-10T05:35:02;98483.30;;;12.26;65.42
56689;BME280;42565;53.342;-1.534;2023-05-10T05:37:29;98485.38;;;12.00;65.43
56689;BME280;42565;53.342;-1.534;2023-05-10T05:39:56;98488.68;;;12.57;64.18
56689;BME280;42565;53.342;-1.534;2023-05-10T05:42:23;98490.29;;;12.97;62.87
56689;BME280;42565;53.342;-1.534;2023-05-10T05:44:50;98491.04;;;12.93;63.35
56689;BME280;42565;53.342;-1.534;2023-05-10T05:47:17;98488.63;;;12.73;63.89
56689;BME280;42565;53.342;-1.534;2023-05-10T05:49:43;98484.52;;;12.68;64.05
56689;BME280;42565;53.342;-1.534;2023-05-10T05:52:10;98485.59;;;13.19;62.99
56689;BME280;42565;53.342;-1.534;2023-05-10T05:54:37;98487.62;;;13.21;63.00
56689;BME280;42565;53.342;-1.534;2023-05-10T05:57:03;98491.26;;;13.15;63.43
56689;BME280;42565;53.342;-1.534;2023-05-10T05:59:30;98490.48;;;12.85;63.30
56689;BME280;42565;53.342;-1.534;2023-05-10T06:01:57;98490.88;;;13.21;62.80
56689;BME280;42565;53.342;-1.534;2023-05-10T06:04:23;98494.38;;;12.45;63.28
56689;BME280;42565;53.342;-1.534;2023-05-10T06:06:50;98492.91;;;13.10;63.55
56689;BME280;42565;53.342;-1.534;2023-05-10T06:09:18;98496.54;;;13.21;63.06
56689;BME280;42565;53.342;-1.534;2023-05-10T06:11:44;98498.49;;;12.95;63.12
56689;BME280;42565;53.342;-1.534;2023-05-10T06:14:11;98500.66;;;13.01;63.22
56689;BME280;42565;53.342;-1.534;2023-05-10T06:16:38;98498.86;;;13.19;63.44
56689;BME280;42565;53.342;-1.534;2023-05-10T06:19:05;98496.23;;;13.42;63.09
56689;BME280;42565;53.342;-1.534;2023-05-10T06:21:32;98498.51;;;13.53;61.82
56689;BME280;42565;53.342;-1.534;2023-05-10T06:23:58;98500.68;;;13.88;61.77
56689;BME280;42565;53.342;-1.534;2023-05-10T06:26:25;98503.90;;;13.11;61.75
56689;BME280;42565;53.342;-1.534;2023-05-10T06:28:52;98506.73;;;14.05;59.94
56689;BME280;42565;53.342;-1.534;2023-05-10T06:31:20;98505.35;;;14.56;59.14
56689;BME280;42565;53.342;-1.534;2023-05-10T06:33:47;98508.42;;;14.18;59.03
56689;BME280;42565;53.342;-1.534;2023-05-10T06:36:13;98509.52;;;14.85;57.27
56689;BME280;42565;53.342;-1.534;2023-05-10T06:38:41;98509.69;;;14.59;57.75
56689;BME280;42565;53.342;-1.534;2023-05-10T06:41:08;98512.14;;;15.02;56.26
56689;BME280;42565;53.342;-1.534;2023-05-10T06:43:35;98516.10;;;14.70;57.02
56689;BME280;42565;53.342;-1.534;2023-05-10T06:46:02;98518.43;;;14.43;56.62
56689;BME280;42565;53.342;-1.534;2023-05-10T06:48:29;98523.63;;;14.41;56.49
56689;BME280;42565;53.342;-1.534;2023-05-10T06:50:55;98522.70;;;14.26;56.71
56689;BME280;42565;53.342;-1.534;2023-05-10T06:53:23;98525.91;;;14.18;55.82
56689;BME280;42565;53.342;-1.534;2023-05-10T06:55:50;98528.95;;;14.51;57.85
56689;BME280;42565;53.342;-1.534;2023-05-10T06:58:17;98526.57;;;14.29;57.32
56689;BME280;42565;53.342;-1.534;2023-05-10T07:00:43;98522.68;;;13.64;58.04
56689;BME280;42565;53.342;-1.534;2023-05-10T07:03:10;98526.43;;;14.10;57.62
56689;BME280;42565;53.342;-1.534;2023-05-10T07:05:38;98523.46;;;14.44;57.48
56689;BME280;42565;53.342;-1.534;2023-05-10T07:08:04;98522.93;;;14.67;58.11
56689;BME280;42565;53.342;-1.534;2023-05-10T07:10:32;98524.55;;;14.37;57.10
56689;BME280;42565;53.342;-1.534;2023-05-10T07:12:59;98523.54;;;14.91;56.74
56689;BME280;42565;53.342;-1.534;2023-05-10T07:15:27;98525.84;;;14.34;57.15
56689;BME280;42565;53.342;-1.534;2023-05-10T07:17:54;98526.94;;;14.11;58.20
56689;BME280;42565;53.342;-1.534;2023-05-10T07:20:21;98524.59;;;13.89;59.09
56689;BME280;42565;53.342;-1.534;2023-05-10T07:22:48;98526.75;;;14.39;58.81
56689;BME280;42565;53.342;-1.534;2023-05-10T07:25:14;98528.28;;;14.62;58.16
56689;BME280;42565;53.342;-1.534;2023-05-10T07:27:42;98528.41;;;14.22;59.52
56689;BME280;42565;53.342;-1.534;2023-05-10T07:30:10;98527.29;;;14.81;58.24
56689;BME280;42565;53.342;-1.534;2023-05-10T07:32:38;98525.79;;;14.43;56.95
56689;BME280;42565;53.342;-1.534;2023-05-10T07:35:05;98526.89;;;15.04;57.11
56689;BME280;42565;53.342;-1.534;2023-05-10T07:37:32;98528.36;;;14.96;56.91
56689;BME280;42565;53.342;-1.534;2023-05-10T07:39:59;98525.14;;;15.11;56.68
56689;BME280;42565;53.342;-1.534;2023-05-10T07:42:25;98531.63;;;14.62;55.28
56689;BME280;42565;53.342;-1.534;2023-05-10T07:44:52;98524.17;;;14.49;57.20
56689;BME280;42565;53.342;-1.534;2023-05-10T07:47:19;98528.01;;;15.06;56.13
56689;BME280;42565;53.342;-1.534;2023-05-10T07:49:46;98530.45;;;15.41;55.58
56689;BME280;42565;53.342;-1.534;2023-05-10T07:52:13;98531.39;;;15.64;55.78
56689;BME280;42565;53.342;-1.534;2023-05-10T07:54:40;98534.26;;;15.12;54.88
56689;BME280;42565;53.342;-1.534;2023-05-10T07:57:06;98536.38;;;15.24;55.79
56689;BME280;42565;53.342;-1.534;2023-05-10T07:59:33;98533.78;;;15.37;55.50
56689;BME280;42565;53.342;-1.534;2023-05-10T08:02:00;98534.26;;;14.34;56.59
56689;BME280;42565;53.342;-1.534;2023-05-10T08:04:27;98535.36;;;13.97;56.71
56689;BME280;42565;53.342;-1.534;2023-05-10T08:06:54;98538.69;;;15.31;55.91
56689;BME280;42565;53.342;-1.534;2023-05-10T08:09:21;98536.86;;;15.25;55.31
56689;BME280;42565;53.342;-1.534;2023-05-10T08:11:48;98544.24;;;14.99;55.60
56689;BME280;42565;53.342;-1.534;2023-05-10T08:14:15;98541.00;;;15.01;55.04
56689;BME280;42565;53.342;-1.534;2023-05-10T08:16:41;98542.80;;;14.71;56.18
56689;BME280;42565;53.342;-1.534;2023-05-10T08:19:09;98542.68;;;15.06;55.46
56689;BME280;42565;53.342;-1.534;2023-05-10T08:21:36;98540.87;;;14.86;56.19
56689;BME280;42565;53.342;-1.534;2023-05-10T08:24:05;98539.28;;;14.38;56.32
56689;BME280;42565;53.342;-1.534;2023-05-10T08:26:33;98537.55;;;14.88;55.74
56689;BME280;42565;53.342;-1.534;2023-05-10T08:29:00;98540.45;;;15.25;55.32
56689;BME280;42565;53.342;-1.534;2023-05-10T08:31:28;98542.83;;;14.79;54.05
56689;BME280;42565;53.342;-1.534;2023-05-10T08:33:55;98539.09;;;15.96;54.43
56689;BME280;42565;53.342;-1.534;2023-05-10T08:36:22;98541.78;;;15.08;52.75
56689;BME280;42565;53.342;-1.534;2023-05-10T08:38:51;98539.89;;;16.14;53.27
56689;BME280;42565;53.342;-1.534;2023-05-10T08:41:19;98540.71;;;15.46;54.24
56689;BME280;42565;53.342;-1.534;2023-05-10T08:43:47;98535.60;;;16.09;52.77
56689;BME280;42565;53.342;-1.534;2023-05-10T08:46:16;98539.92;;;16.03;50.54
56689;BME280;42565;53.342;-1.534;2023-05-10T08:48:44;98532.89;;;16.01;50.84
56689;BME280;42565;53.342;-1.534;2023-05-10T08:51:14;98530.72;;;15.89;50.43
56689;BME280;42565;53.342;-1.534;2023-05-10T08:53:42;98530.73;;;15.81;49.68
56689;BME280;42565;53.342;-1.534;2023-05-10T08:56:09;98528.43;;;16.16;48.74
56689;BME280;42565;53.342;-1.534;2023-05-10T08:58:37;98531.06;;;15.79;48.45
56689;BME280;42565;53.342;-1.534;2023-05-10T09:01:05;98531.13;;;16.57;49.23
56689;BME280;42565;53.342;-1.534;2023-05-10T09:03:32;98530.99;;;17.10;45.62
56689;BME280;42565;53.342;-1.534;2023-05-10T09:06:00;98531.69;;;16.95;45.21
56689;BME280;42565;53.342;-1.534;2023-05-10T09:08:28;98531.75;;;16.80;45.92
56689;BME280;42565;53.342;-1.534;2023-05-10T09:10:55;98534.85;;;17.21;46.48
56689;BME280;42565;53.342;-1.534;2023-05-10T09:13:23;98534.34;;;17.32;45.06
56689;BME280;42565;53.342;-1.534;2023-05-10T09:15:51;98534.65;;;16.54;46.07
56689;BME280;42565;53.342;-1.534;2023-05-10T09:18:19;98536.87;;;16.05;48.23
56689;BME280;42565;53.342;-1.534;2023-05-10T09:20:46;98537.33;;;15.95;48.67
56689;BME280;42565;53.342;-1.534;2023-05-10T09:23:13;98538.30;;;16.11;49.20
56689;BME280;42565;53.342;-1.534;2023-05-10T09:25:41;98546.06;;;15.90;49.77
56689;BME280;42565;53.342;-1.534;2023-05-10T09:28:09;98548.01;;;15.21;51.43
56689;BME280;42565;53.342;-1.534;2023-05-10T09:30:36;98553.84;;;15.50;51.75
56689;BME280;42565;53.342;-1.534;2023-05-10T09:33:04;98556.01;;;15.17;52.96
56689;BME280;42565;53.342;-1.534;2023-05-10T09:35:32;98557.10;;;15.25;53.96
56689;BME280;42565;53.342;-1.534;2023-05-10T09:38:02;98558.62;;;15.16;53.87
56689;BME280;42565;53.342;-1.534;2023-05-10T09:40:30;98558.54;;;15.44;53.92
56689;BME280;42565;53.342;-1.534;2023-05-10T09:43:00;98557.13;;;15.36;53.26
56689;BME280;42565;53.342;-1.534;2023-05-10T09:45:28;98552.27;;;15.35;55.37
56689;BME280;42565;53.342;-1.534;2023-05-10T09:47:57;98546.33;;;15.50;54.01
56689;BME280;42565;53.342;-1.534;2023-05-10T09:50:26;98544.50;;;15.65;53.03
56689;BME280;42565;53.342;-1.534;2023-05-10T09:52:54;98539.63;;;16.14;51.96
56689;BME280;42565;53.342;-1.534;2023-05-10T09:55:23;98537.46;;;16.42;49.97
56689;BME280;42565;53.342;-1.534;2023-05-10T09:58:00;98539.60;;;16.60;50.32
56689;BME280;42565;53.342;-1.534;2023-05-10T10:00:28;98537.46;;;16.43;49.22
56689;BME280;42565;53.342;-1.534;2023-05-10T10:02:56;98542.10;;;16.59;48.95
56689;BME280;42565;53.342;-1.534;2023-05-10T10:05:28;98538.43;;;16.59;48.94
56689;BME280;42565;53.342;-1.534;2023-05-10T10:07:56;98542.46;;;17.48;48.36
56689;BME280;42565;53.342;-1.534;2023-05-10T10:10:24;98540.74;;;16.78;47.92
56689;BME280;42565;53.342;-1.534;2023-05-10T10:12:51;98540.42;;;17.14;47.54
56689;BME280;42565;53.342;-1.534;2023-05-10T10:15:19;98536.26;;;17.01;47.45
56689;BME280;42565;53.342;-1.534;2023-05-10T10:17:47;98540.23;;;17.02;47.69
56689;BME280;42565;53.342;-1.534;2023-05-10T10:20:15;98538.63;;;16.89;48.22
56689;BME280;42565;53.342;-1.534;2023-05-10T10:22:42;98539.82;;;15.58;51.76
56689;BME280;42565;53.342;-1.534;2023-05-10T10:25:12;98537.70;;;16.49;51.10
56689;BME280;42565;53.342;-1.534;2023-05-10T10:27:44;98531.80;;;16.71;47.95
56689;BME280;42565;53.342;-1.534;2023-05-10T10:30:22;98526.99;;;17.39;47.39
56689;BME280;42565;53.342;-1.534;2023-05-10T10:33:09;98528.36;;;17.23;47.70
56689;BME280;42565;53.342;-1.534;2023-05-10T10:35:40;98529.00;;;17.29;46.21
56689;BME280;42565;53.342;-1.534;2023-05-10T10:38:08;98534.74;;;16.87;47.29
56689;BME280;42565;53.342;-1.534;2023-05-10T10:40:35;98531.60;;;17.03;46.97
56689;BME280;42565;53.342;-1.534;2023-05-10T10:43:35;98534.44;;;16.34;49.34
56689;BME280;42565;53.342;-1.534;2023-05-10T10:46:11;98537.92;;;15.54;51.46
56689;BME280;42565;53.342;-1.534;2023-05-10T10:48:38;98535.53;;;15.96;51.59
56689;BME280;42565;53.342;-1.534;2023-05-10T10:51:05;98536.05;;;15.55;52.69
56689;BME280;42565;53.342;-1.534;2023-05-10T10:53:32;98538.07;;;15.36;53.13
56689;BME280;42565;53.342;-1.534;2023-05-10T10:56:06;98536.01;;;15.58;53.46
56689;BME280;42565;53.342;-1.534;2023-05-10T10:58:34;98539.61;;;15.01;55.66
56689;BME280;42565;53.342;-1.534;2023-05-10T11:01:10;98538.78;;;14.59;62.83
56689;BME280;42565;53.342;-1.534;2023-05-10T11:03:38;98539.72;;;14.21;63.51
56689;BME280;42565;53.342;-1.534;2023-05-10T11:06:05;98535.84;;;14.06;64.22
56689;BME280;42565;53.342;-1.534;2023-05-10T11:08:34;98535.64;;;14.49;65.17
56689;BME280;42565;53.342;-1.534;2023-05-10T11:11:08;98533.06;;;14.75;64.24
56689;BME280;42565;53.342;-1.534;2023-05-10T11:13:40;98531.04;;;14.86;61.35
56689;BME280;42565;53.342;-1.534;2023-05-10T11:16:17;98528.27;;;15.11;58.40
56689;BME280;42565;53.342;-1.534;2023-05-10T11:18:56;98527.27;;;14.71;58.70
56689;BME280;42565;53.342;-1.534;2023-05-10T11:21:24;98529.90;;;15.32;56.79
56689;BME280;42565;53.342;-1.534;2023-05-10T11:23:53;98524.44;;;15.39;56.30
56689;BME280;42565;53.342;-1.534;2023-05-10T11:26:22;98518.38;;;16.06;54.55
56689;BME280;42565;53.342;-1.534;2023-05-10T11:28:49;98515.33;;;16.04;55.99
56689;BME280;42565;53.342;-1.534;2023-05-10T11:31:18;98512.30;;;16.53;53.27
56689;BME280;42565;53.342;-1.534;2023-05-10T11:33:46;98508.82;;;16.03;53.12
56689;BME280;42565;53.342;-1.534;2023-05-10T11:36:14;98505.65;;;16.13;53.96
56689;BME280;42565;53.342;-1.534;2023-05-10T11:38:42;98506.33;;;16.54;53.35
56689;BME280;42565;53.342;-1.534;2023-05-10T11:41:10;98498.27;;;16.81;49.34
56689;BME280;42565;53.342;-1.534;2023-05-10T11:43:38;98493.05;;;16.67;49.27
56689;BME280;42565;53.342;-1.534;2023-05-10T11:46:06;98494.66;;;17.96;46.76
56689;BME280;42565;53.342;-1.534;2023-05-10T11:48:33;98498.84;;;17.73;45.26
56689;BME280;42565;53.342;-1.534;2023-05-10T11:51:01;98500.27;;;17.38;44.90
56689;BME280;42565;53.342;-1.534;2023-05-10T11:53:29;98503.62;;;16.74;46.73
56689;BME280;42565;53.342;-1.534;2023-05-10T11:56:03;98505.89;;;16.65;49.39
56689;BME280;42565;53.342;-1.534;2023-05-10T11:58:30;98514.71;;;15.73;54.71
56689;BME280;42565;53.342;-1.534;2023-05-10T12:00:58;98519.66;;;15.53;61.52
56689;BME280;42565;53.342;-1.534;2023-05-10T12:03:25;98523.24;;;13.76;67.87
56689;BME280;42565;53.342;-1.534;2023-05-10T12:05:52;98528.39;;;13.51;70.55
56689;BME280;42565;53.342;-1.534;2023-05-10T12:08:21;98527.52;;;13.05;73.14
56689;BME280;42565;53.342;-1.534;2023-05-10T12:10:49;98529.93;;;13.50;73.56
56689;BME280;42565;53.342;-1.534;2023-05-10T12:13:17;98527.37;;;13.72;74.51
56689;BME280;42565;53.342;-1.534;2023-05-10T12:15:44;98525.82;;;14.15;72.31
56689;BME280;42565;53.342;-1.534;2023-05-10T12:18:13;98525.15;;;15.00;69.89
56689;BME280;42565;53.342;-1.534;2023-05-10T12:20:41;98536.01;;;15.22;70.40
56689;BME280;42565;53.342;-1.534;2023-05-10T12:23:09;98534.30;;;15.76;66.62
56689;BME280;42565;53.342;-1.534;2023-05-10T12:25:37;98530.43;;;15.60;64.63
56689;BME280;42565;53.342;-1.534;2023-05-10T12:28:06;98531.96;;;15.42;62.95
56689;BME280;42565;53.342;-1.534;2023-05-10T12:30:34;98530.18;;;15.43;61.51
56689;BME280;42565;53.342;-1.534;2023-05-10T12:33:07;98530.99;;;15.23;63.85
56689;BME280;42565;53.342;-1.534;2023-05-10T12:35:44;98530.44;;;15.88;63.23
56689;BME280;42565;53.342;-1.534;2023-05-10T12:38:28;98537.15;;;15.87;63.87
56689;BME280;42565;53.342;-1.534;2023-05-10T12:40:56;98534.76;;;16.04;64.55
56689;BME280;42565;53.342;-1.534;2023-05-10T12:43:23;98525.77;;;16.55;65.08
56689;BME280;42565;53.342;-1.534;2023-05-10T12:45:51;98523.29;;;16.28;64.02
56689;BME280;42565;53.342;-1.534;2023-05-10T12:48:18;98522.64;;;17.08;61.33
56689;BME280;42565;53.342;-1.534;2023-05-10T12:50:46;98520.73;;;17.42;59.53
56689;BME280;42565;53.342;-1.534;2023-05-10T12:53:14;98522.57;;;18.12;64.04
56689;BME280;42565;53.342;-1.534;2023-05-10T12:55:42;98521.24;;;18.89;57.07
56689;BME280;42565;53.342;-1.534;2023-05-10T12:58:09;98518.78;;;19.15;59.82